Unicom:                    122.8

AWOS:                  118.275 (call in) 814-297-1486

Elevation           1458’ MSL

TPA:                   2500’ MSL

06/24:         5003’ L   75’ W

PAPI:       06/Left     24/Left

(Operate lights on unicom freq.)

Traffic Pattern: Left

Beacon: Sunset to Sunrise

Windsock: yes, lighted

Segmented Circle: No

 

Cleveland Center: 126.72/291.65

FSS: Altoona

[Source: ADDS]
METAR
KFKL 272210Z AUTO 30005KT 10SM FEW009 BKN015 OVC050 06/06 A2998 RMK AO2 RAE03 P0000 =
KFKL 271722Z 2718/2818 32004KT 6SM -RA OVC035 TEMPO 2719/2722 BKN015 FM272200 33007KT P6SM VCSH OVC007 FM281400 34006KT P6SM OVC015
TAF
KFKL 271722Z 2718/2818 32004KT 6SM -RA OVC035 TEMPO 2719/2722 BKN015 FM272200 33007KT P6SM VCSH OVC007 FM281400 34006KT P6SM OVC015 =
[Source: ADDS]
METAR
KDUJ 272157Z AUTO 30010KT 9SM FEW009 BKN014 OVC031 07/05 A2992 RMK AO2 T00720050 =
KDUJ 271722Z 2718/2818 07005KT P6SM -RA OVC050 TEMPO 2720/2722 33007KT BKN020 FM272200 30008KT P6SM VCSH OVC015 FM280100 31009KT P6SM VCSH OVC007 FM281400 34008KT P6SM OVC015
TAF
KDUJ 271722Z 2718/2818 07005KT P6SM -RA OVC050 TEMPO 2720/2722 33007KT BKN020 FM272200 30008KT P6SM VCSH OVC015 FM280100 31009KT P6SM VCSH OVC007 FM281400 34008KT P6SM OVC015 =

Development areas as listed in the Pennsylvania Department of Transportation,

Bureau of Aviation Airport Properties Directory

 

Area 1 - 7 acre area for development needing access to runway 

Area 2 - 7 acre area for development not needing access to runway

There are several other Industrial Development areas available on the airport, and at other sites with easy access to the airport.

Please contact the Clarion County Airport Authority at (814) 226 - 9993, or manager@clarionairport.com

You can also contact the Clarion County Economic Development Corporation at (814) 226 - 9045.

 

Resourceful Links:

Clarion Chamber of Commerce https://www.clarionpa.com/

Clarion County Economic Development Corporation http://www.callclarionpa.com/